sensor_id;sensor_type;location;lat;lon;timestamp;pressure;altitude;pressure_sealevel;temperature;humidity
5455;BME280;2750;49.050;9.250;2023-04-02T00:03:08;97967.78;;;11.70;89.14
5455;BME280;2750;49.050;9.250;2023-04-02T00:08:20;97968.00;;;11.67;89.66
5455;BME280;2750;49.050;9.250;2023-04-02T00:13:28;97974.16;;;11.51;89.98
5455;BME280;2750;49.050;9.250;2023-04-02T00:18:32;97979.56;;;11.48;89.17
5455;BME280;2750;49.050;9.250;2023-04-02T00:23:37;97984.47;;;11.39;89.96
5455;BME280;2750;49.050;9.250;2023-04-02T00:28:39;97986.94;;;11.55;89.05
5455;BME280;2750;49.050;9.250;2023-04-02T00:33:41;97986.25;;;11.38;89.56
5455;BME280;2750;49.050;9.250;2023-04-02T00:38:45;97997.00;;;11.87;87.90
5455;BME280;2750;49.050;9.250;2023-04-02T00:43:48;97994.50;;;11.86;87.13
5455;BME280;2750;49.050;9.250;2023-04-02T00:48:53;98004.75;;;11.75;87.40
5455;BME280;2750;49.050;9.250;2023-04-02T00:54:02;98008.22;;;11.47;88.31
5455;BME280;2750;49.050;9.250;2023-04-02T00:59:17;98007.44;;;11.73;89.26
5455;BME280;2750;49.050;9.250;2023-04-02T01:04:28;98008.81;;;11.79;89.96
5455;BME280;2750;49.050;9.250;2023-04-02T01:09:45;98026.00;;;11.67;91.50
5455;BME280;2750;49.050;9.250;2023-04-02T01:14:55;98030.66;;;12.16;90.05
5455;BME280;2750;49.050;9.250;2023-04-02T01:20:38;98031.91;;;11.69;92.38
5455;BME280;2750;49.050;9.250;2023-04-02T01:25:50;98036.06;;;11.45;94.56
5455;BME280;2750;49.050;9.250;2023-04-02T01:30:57;98039.38;;;11.61;94.35
5455;BME280;2750;49.050;9.250;2023-04-02T01:36:04;98034.00;;;11.50;94.85
5455;BME280;2750;49.050;9.250;2023-04-02T01:41:15;98036.03;;;11.73;93.88
5455;BME280;2750;49.050;9.250;2023-04-02T01:46:28;98049.09;;;11.58;94.94
5455;BME280;2750;49.050;9.250;2023-04-02T01:51:33;98046.41;;;11.73;93.92
5455;BME280;2750;49.050;9.250;2023-04-02T01:56:35;98049.56;;;11.78;93.00
5455;BME280;2750;49.050;9.250;2023-04-02T02:01:42;98064.75;;;11.15;94.71
5455;BME280;2750;49.050;9.250;2023-04-02T02:06:48;98064.38;;;11.21;94.38
5455;BME280;2750;49.050;9.250;2023-04-02T02:11:50;98061.69;;;11.23;94.53
5455;BME280;2750;49.050;9.250;2023-04-02T02:16:55;98071.16;;;11.38;94.08
5455;BME280;2750;49.050;9.250;2023-04-02T02:22:06;98068.38;;;11.27;94.31
5455;BME280;2750;49.050;9.250;2023-04-02T02:27:37;98075.03;;;11.02;94.36
5455;BME280;2750;49.050;9.250;2023-04-02T02:32:49;98083.19;;;10.96;94.95
5455;BME280;2750;49.050;9.250;2023-04-02T02:37:56;98081.16;;;11.01;94.59
5455;BME280;2750;49.050;9.250;2023-04-02T02:43:01;98085.97;;;11.36;92.75
5455;BME280;2750;49.050;9.250;2023-04-02T02:48:10;98082.25;;;11.40;92.45
5455;BME280;2750;49.050;9.250;2023-04-02T02:53:18;98096.25;;;11.51;92.87
5455;BME280;2750;49.050;9.250;2023-04-02T02:58:23;98107.28;;;11.69;91.57
5455;BME280;2750;49.050;9.250;2023-04-02T03:03:29;98104.03;;;11.94;90.85
5455;BME280;2750;49.050;9.250;2023-04-02T03:08:35;98101.97;;;12.26;89.66
5455;BME280;2750;49.050;9.250;2023-04-02T03:13:42;98109.81;;;12.12;89.89
5455;BME280;2750;49.050;9.250;2023-04-02T03:18:52;98111.13;;;12.31;89.03
5455;BME280;2750;49.050;9.250;2023-04-02T03:23:57;98126.25;;;12.39;88.67
5455;BME280;2750;49.050;9.250;2023-04-02T03:29:03;98123.44;;;12.42;88.16
5455;BME280;2750;49.050;9.250;2023-04-02T03:34:12;98127.94;;;12.40;88.14
5455;BME280;2750;49.050;9.250;2023-04-02T03:39:21;98128.81;;;12.53;87.66
5455;BME280;2750;49.050;9.250;2023-04-02T03:44:29;98127.88;;;12.54;88.07
5455;BME280;2750;49.050;9.250;2023-04-02T03:49:37;98136.41;;;12.56;88.48
5455;BME280;2750;49.050;9.250;2023-04-02T03:54:42;98145.63;;;12.74;88.21
5455;BME280;2750;49.050;9.250;2023-04-02T03:59:49;98154.13;;;12.64;88.30
5455;BME280;2750;49.050;9.250;2023-04-02T04:04:55;98153.94;;;12.67;88.83
5455;BME280;2750;49.050;9.250;2023-04-02T04:09:58;98163.38;;;12.28;88.20
5455;BME280;2750;49.050;9.250;2023-04-02T04:15:06;98161.34;;;12.46;87.98
5455;BME280;2750;49.050;9.250;2023-04-02T04:20:16;98169.56;;;12.40;87.22
5455;BME280;2750;49.050;9.250;2023-04-02T04:25:24;98178.13;;;11.87;89.82
5455;BME280;2750;49.050;9.250;2023-04-02T04:30:32;98187.03;;;11.97;89.76
5455;BME280;2750;49.050;9.250;2023-04-02T04:35:48;98189.50;;;12.13;88.92
5455;BME280;2750;49.050;9.250;2023-04-02T04:40:54;98196.75;;;12.22;88.71
5455;BME280;2750;49.050;9.250;2023-04-02T04:45:59;98207.38;;;12.45;88.25
5455;BME280;2750;49.050;9.250;2023-04-02T04:51:07;98211.31;;;12.24;88.94
5455;BME280;2750;49.050;9.250;2023-04-02T04:56:10;98216.44;;;12.26;88.67
5455;BME280;2750;49.050;9.250;2023-04-02T05:01:16;98227.78;;;11.82;90.85
5455;BME280;2750;49.050;9.250;2023-04-02T05:06:25;98235.56;;;11.68;91.41
5455;BME280;2750;49.050;9.250;2023-04-02T05:11:35;98241.28;;;11.59;92.12
5455;BME280;2750;49.050;9.250;2023-04-02T05:16:41;98246.72;;;11.26;93.10
5455;BME280;2750;49.050;9.250;2023-04-02T05:21:49;98249.06;;;11.45;92.71
5455;BME280;2750;49.050;9.250;2023-04-02T05:26:57;98258.75;;;11.57;92.36
5455;BME280;2750;49.050;9.250;2023-04-02T05:32:03;98259.31;;;11.62;92.74
5455;BME280;2750;49.050;9.250;2023-04-02T05:37:15;98258.38;;;11.63;92.28
5455;BME280;2750;49.050;9.250;2023-04-02T05:42:21;98267.66;;;11.53;93.37
5455;BME280;2750;49.050;9.250;2023-04-02T05:47:26;98283.78;;;11.44;94.42
5455;BME280;2750;49.050;9.250;2023-04-02T05:52:35;98286.19;;;11.47;94.51
5455;BME280;2750;49.050;9.250;2023-04-02T05:57:41;98294.25;;;11.72;93.66
5455;BME280;2750;49.050;9.250;2023-04-02T06:02:49;98300.25;;;12.58;90.24
5455;BME280;2750;49.050;9.250;2023-04-02T06:07:57;98303.22;;;12.80;89.29
5455;BME280;2750;49.050;9.250;2023-04-02T06:13:05;98311.91;;;12.93;88.51
5455;BME280;2750;49.050;9.250;2023-04-02T06:18:13;98315.50;;;13.05;87.95
5455;BME280;2750;49.050;9.250;2023-04-02T06:23:21;98327.13;;;13.13;88.22
5455;BME280;2750;49.050;9.250;2023-04-02T06:28:26;98333.38;;;12.97;88.53
5455;BME280;2750;49.050;9.250;2023-04-02T06:33:31;98344.91;;;12.37;89.17
5455;BME280;2750;49.050;9.250;2023-04-02T06:38:35;98346.84;;;12.20;90.26
5455;BME280;2750;49.050;9.250;2023-04-02T06:43:40;98360.63;;;11.78;92.63
5455;BME280;2750;49.050;9.250;2023-04-02T06:48:45;98363.09;;;12.23;92.22
5455;BME280;2750;49.050;9.250;2023-04-02T06:53:49;98368.59;;;12.33;91.52
5455;BME280;2750;49.050;9.250;2023-04-02T06:58:51;98379.38;;;12.55;91.36
5455;BME280;2750;49.050;9.250;2023-04-02T07:03:53;98385.78;;;12.78;89.38
5455;BME280;2750;49.050;9.250;2023-04-02T07:08:56;98390.78;;;12.95;89.69
5455;BME280;2750;49.050;9.250;2023-04-02T07:13:58;98404.00;;;12.64;90.27
5455;BME280;2750;49.050;9.250;2023-04-02T07:18:59;98406.66;;;12.06;93.65
5455;BME280;2750;49.050;9.250;2023-04-02T07:24:05;98418.59;;;12.38;92.28
5455;BME280;2750;49.050;9.250;2023-04-02T07:29:08;98419.25;;;12.41;93.47
5455;BME280;2750;49.050;9.250;2023-04-02T07:34:10;98430.47;;;12.84;92.19
5455;BME280;2750;49.050;9.250;2023-04-02T07:39:12;98439.69;;;12.90;91.68
5455;BME280;2750;49.050;9.250;2023-04-02T07:44:14;98436.66;;;13.65;90.17
5455;BME280;2750;49.050;9.250;2023-04-02T07:49:16;98443.59;;;14.31;88.00
5455;BME280;2750;49.050;9.250;2023-04-02T07:54:19;98447.03;;;14.31;87.36
5455;BME280;2750;49.050;9.250;2023-04-02T07:59:21;98459.22;;;14.18;87.64
5455;BME280;2750;49.050;9.250;2023-04-02T08:04:22;98467.56;;;14.50;87.12
5455;BME280;2750;49.050;9.250;2023-04-02T08:09:25;98471.94;;;14.88;86.14
5455;BME280;2750;49.050;9.250;2023-04-02T08:14:27;98472.38;;;14.94;84.30
5455;BME280;2750;49.050;9.250;2023-04-02T08:19:28;98474.88;;;14.70;85.90
5455;BME280;2750;49.050;9.250;2023-04-02T08:24:31;98482.91;;;14.03;87.40
5455;BME280;2750;49.050;9.250;2023-04-02T08:29:33;98492.63;;;14.40;83.64
5455;BME280;2750;49.050;9.250;2023-04-02T08:34:34;98502.31;;;13.99;86.32
5455;BME280;2750;49.050;9.250;2023-04-02T08:39:38;98510.56;;;14.05;86.21
5455;BME280;2750;49.050;9.250;2023-04-02T08:44:44;98515.69;;;13.39;87.10
5455;BME280;2750;49.050;9.250;2023-04-02T08:49:56;98514.03;;;14.58;83.00
5455;BME280;2750;49.050;9.250;2023-04-02T08:55:00;98519.34;;;14.44;84.04
5455;BME280;2750;49.050;9.250;2023-04-02T09:00:23;98528.97;;;14.68;82.83
5455;BME280;2750;49.050;9.250;2023-04-02T09:05:29;98538.72;;;14.92;82.99
5455;BME280;2750;49.050;9.250;2023-04-02T09:10:36;98545.94;;;14.75;81.58
5455;BME280;2750;49.050;9.250;2023-04-02T09:15:40;98552.94;;;15.00;80.08
5455;BME280;2750;49.050;9.250;2023-04-02T09:20:42;98557.72;;;14.81;81.42
5455;BME280;2750;49.050;9.250;2023-04-02T09:25:48;98553.56;;;15.29;79.71
5455;BME280;2750;49.050;9.250;2023-04-02T09:30:59;98563.22;;;14.51;83.24
5455;BME280;2750;49.050;9.250;2023-04-02T09:36:02;98569.53;;;15.50;78.40
5455;BME280;2750;49.050;9.250;2023-04-02T09:41:07;98567.75;;;15.63;77.40
5455;BME280;2750;49.050;9.250;2023-04-02T09:46:22;98585.88;;;15.28;79.15
5455;BME280;2750;49.050;9.250;2023-04-02T09:51:25;98587.94;;;15.23;77.68
5455;BME280;2750;49.050;9.250;2023-04-02T09:56:31;98592.75;;;15.04;77.31
5455;BME280;2750;49.050;9.250;2023-04-02T10:01:34;98590.47;;;15.12;78.80
5455;BME280;2750;49.050;9.250;2023-04-02T10:06:47;98600.28;;;15.46;77.35
5455;BME280;2750;49.050;9.250;2023-04-02T10:11:52;98601.63;;;15.77;76.96
5455;BME280;2750;49.050;9.250;2023-04-02T10:16:57;98606.53;;;15.82;76.75
5455;BME280;2750;49.050;9.250;2023-04-02T10:22:02;98626.00;;;15.77;76.77
5455;BME280;2750;49.050;9.250;2023-04-02T10:27:15;98626.56;;;14.67;79.91
5455;BME280;2750;49.050;9.250;2023-04-02T10:32:24;98636.19;;;14.67;81.64
5455;BME280;2750;49.050;9.250;2023-04-02T10:37:53;98633.31;;;13.89;83.93
5455;BME280;2750;49.050;9.250;2023-04-02T10:48:27;98653.75;;;14.77;83.49
5455;BME280;2750;49.050;9.250;2023-04-02T10:53:39;98658.56;;;13.89;86.04
5455;BME280;2750;49.050;9.250;2023-04-02T10:58:49;98662.09;;;14.02;85.85
5455;BME280;2750;49.050;9.250;2023-04-02T11:03:58;98667.88;;;13.79;85.68
5455;BME280;2750;49.050;9.250;2023-04-02T11:09:03;98675.47;;;14.24;84.95
5455;BME280;2750;49.050;9.250;2023-04-02T11:14:12;98681.00;;;14.06;85.01
5455;BME280;2750;49.050;9.250;2023-04-02T11:19:25;98687.31;;;14.16;84.76
5455;BME280;2750;49.050;9.250;2023-04-02T11:24:35;98684.38;;;14.49;82.52
5455;BME280;2750;49.050;9.250;2023-04-02T11:29:38;98692.75;;;13.84;85.19
5455;BME280;2750;49.050;9.250;2023-04-02T11:35:00;98704.38;;;13.07;89.78
5455;BME280;2750;49.050;9.250;2023-04-02T11:40:36;98704.44;;;13.35;88.52
5455;BME280;2750;49.050;9.250;2023-04-02T11:45:53;98708.19;;;14.16;85.60
5455;BME280;2750;49.050;9.250;2023-04-02T11:50:57;98715.16;;;14.44;84.54
5455;BME280;2750;49.050;9.250;2023-04-02T11:56:17;98714.13;;;14.32;82.81
5455;BME280;2750;49.050;9.250;2023-04-02T12:01:41;98722.72;;;13.92;84.40
5455;BME280;2750;49.050;9.250;2023-04-02T12:06:59;98743.19;;;11.51;93.45
5455;BME280;2750;49.050;9.250;2023-04-02T12:12:15;98761.22;;;10.50;98.08
5455;BME280;2750;49.050;9.250;2023-04-02T12:17:24;98766.88;;;10.21;99.23
5455;BME280;2750;49.050;9.250;2023-04-02T12:22:30;98768.31;;;10.07;100.00
5455;BME280;2750;49.050;9.250;2023-04-02T12:27:33;98777.25;;;10.00;100.00
5455;BME280;2750;49.050;9.250;2023-04-02T12:32:39;98784.13;;;10.40;100.00
5455;BME280;2750;49.050;9.250;2023-04-02T12:37:40;98795.53;;;10.36;100.00
5455;BME280;2750;49.050;9.250;2023-04-02T12:42:42;98787.41;;;10.25;100.00
5455;BME280;2750;49.050;9.250;2023-04-02T12:47:45;98806.06;;;10.33;99.18
5455;BME280;2750;49.050;9.250;2023-04-02T12:52:48;98817.09;;;10.57;97.55
5455;BME280;2750;49.050;9.250;2023-04-02T12:57:54;98814.25;;;10.80;96.13
5455;BME280;2750;49.050;9.250;2023-04-02T13:03:14;98812.50;;;11.51;94.50
5455;BME280;2750;49.050;9.250;2023-04-02T13:08:18;98833.09;;;11.56;93.49
5455;BME280;2750;49.050;9.250;2023-04-02T13:13:26;98833.59;;;11.28;93.26
5455;BME280;2750;49.050;9.250;2023-04-02T13:18:33;98831.72;;;11.13;93.47
5455;BME280;2750;49.050;9.250;2023-04-02T13:23:36;98845.03;;;11.07;93.09
5455;BME280;2750;49.050;9.250;2023-04-02T13:28:37;98843.47;;;11.02;93.30
5455;BME280;2750;49.050;9.250;2023-04-02T13:33:40;98842.16;;;11.30;91.15
5455;BME280;2750;49.050;9.250;2023-04-02T13:38:42;98856.63;;;11.17;91.95
5455;BME280;2750;49.050;9.250;2023-04-02T13:43:43;98863.88;;;11.10;90.32
5455;BME280;2750;49.050;9.250;2023-04-02T13:48:46;98862.88;;;10.95;91.13
5455;BME280;2750;49.050;9.250;2023-04-02T13:53:50;98858.72;;;10.91;90.86
5455;BME280;2750;49.050;9.250;2023-04-02T13:58:53;98871.97;;;11.40;90.27
5455;BME280;2750;49.050;9.250;2023-04-02T14:03:56;98876.59;;;10.97;88.83
5455;BME280;2750;49.050;9.250;2023-04-02T14:09:02;98883.41;;;10.81;89.44
5455;BME280;2750;49.050;9.250;2023-04-02T14:19:39;98897.72;;;10.71;91.84
5455;BME280;2750;49.050;9.250;2023-04-02T14:24:53;98899.78;;;11.38;89.61
5455;BME280;2750;49.050;9.250;2023-04-02T14:30:03;98916.59;;;10.93;90.04
5455;BME280;2750;49.050;9.250;2023-04-02T14:35:13;98916.25;;;10.43;91.37
5455;BME280;2750;49.050;9.250;2023-04-02T14:40:20;98934.44;;;10.62;90.18
5455;BME280;2750;49.050;9.250;2023-04-02T14:45:38;98925.50;;;10.30;90.38
5455;BME280;2750;49.050;9.250;2023-04-02T14:50:44;98935.44;;;10.60;89.63
5455;BME280;2750;49.050;9.250;2023-04-02T14:55:47;98946.91;;;10.93;88.25
5455;BME280;2750;49.050;9.250;2023-04-02T15:00:55;98951.31;;;10.72;88.35
5455;BME280;2750;49.050;9.250;2023-04-02T15:06:02;98955.50;;;10.36;90.00
5455;BME280;2750;49.050;9.250;2023-04-02T15:11:06;98941.06;;;10.08;89.40
5455;BME280;2750;49.050;9.250;2023-04-02T15:16:13;98963.38;;;10.13;88.55
5455;BME280;2750;49.050;9.250;2023-04-02T15:21:33;98968.97;;;10.24;88.96
5455;BME280;2750;49.050;9.250;2023-04-02T15:26:45;98973.63;;;9.95;88.69
5455;BME280;2750;49.050;9.250;2023-04-02T15:31:50;98980.91;;;10.48;86.55
5455;BME280;2750;49.050;9.250;2023-04-02T15:37:03;98979.13;;;10.30;87.25
5455;BME280;2750;49.050;9.250;2023-04-02T15:42:20;98983.34;;;9.69;87.97
5455;BME280;2750;49.050;9.250;2023-04-02T15:47:30;98997.44;;;9.83;87.88
5455;BME280;2750;49.050;9.250;2023-04-02T15:52:42;99010.91;;;9.48;89.45
5455;BME280;2750;49.050;9.250;2023-04-02T15:57:58;99014.34;;;9.70;89.58
5455;BME280;2750;49.050;9.250;2023-04-02T16:03:26;99027.00;;;9.99;88.15
5455;BME280;2750;49.050;9.250;2023-04-02T16:08:42;99038.78;;;9.65;88.53
5455;BME280;2750;49.050;9.250;2023-04-02T16:13:46;99049.03;;;9.21;88.28
5455;BME280;2750;49.050;9.250;2023-04-02T16:18:53;99054.72;;;9.97;86.43
5455;BME280;2750;49.050;9.250;2023-04-02T16:23:58;99059.78;;;9.10;87.50
5455;BME280;2750;49.050;9.250;2023-04-02T16:29:08;99063.00;;;9.17;87.51
5455;BME280;2750;49.050;9.250;2023-04-02T16:34:20;99082.31;;;8.84;87.52
5455;BME280;2750;49.050;9.250;2023-04-02T16:39:33;99092.91;;;9.26;86.87
5455;BME280;2750;49.050;9.250;2023-04-02T16:44:46;99089.84;;;8.90;87.87
5455;BME280;2750;49.050;9.250;2023-04-02T16:49:56;99099.31;;;8.66;88.09
5455;BME280;2750;49.050;9.250;2023-04-02T16:55:14;99106.53;;;8.56;87.66
5455;BME280;2750;49.050;9.250;2023-04-02T17:00:26;99116.53;;;8.41;86.82
5455;BME280;2750;49.050;9.250;2023-04-02T17:05:32;99107.38;;;8.31;87.16
5455;BME280;2750;49.050;9.250;2023-04-02T17:10:45;99129.66;;;8.61;86.40
5455;BME280;2750;49.050;9.250;2023-04-02T17:15:49;99125.84;;;8.46;86.43
5455;BME280;2750;49.050;9.250;2023-04-02T17:20:59;99149.19;;;8.15;86.21
5455;BME280;2750;49.050;9.250;2023-04-02T17:26:06;99150.06;;;7.57;88.19
5455;BME280;2750;49.050;9.250;2023-04-02T17:31:12;99187.59;;;7.69;87.20
5455;BME280;2750;49.050;9.250;2023-04-02T17:36:27;99204.28;;;7.57;87.96
5455;BME280;2750;49.050;9.250;2023-04-02T17:41:37;99209.03;;;7.42;88.59
5455;BME280;2750;49.050;9.250;2023-04-02T17:46:44;99232.09;;;7.15;88.07
5455;BME280;2750;49.050;9.250;2023-04-02T17:51:54;99235.56;;;7.47;87.94
5455;BME280;2750;49.050;9.250;2023-04-02T17:57:09;99256.41;;;7.39;87.06
5455;BME280;2750;49.050;9.250;2023-04-02T18:02:24;99247.72;;;7.09;86.40
5455;BME280;2750;49.050;9.250;2023-04-02T18:07:34;99265.72;;;6.76;86.44
5455;BME280;2750;49.050;9.250;2023-04-02T18:12:52;99283.66;;;6.82;85.47
5455;BME280;2750;49.050;9.250;2023-04-02T18:18:00;99302.88;;;6.67;84.78
5455;BME280;2750;49.050;9.250;2023-04-02T18:23:12;99317.41;;;6.71;85.44
5455;BME280;2750;49.050;9.250;2023-04-02T18:28:36;99326.56;;;6.84;84.56
5455;BME280;2750;49.050;9.250;2023-04-02T18:33:54;99336.16;;;6.39;83.71
5455;BME280;2750;49.050;9.250;2023-04-02T18:39:01;99341.88;;;6.52;83.37
5455;BME280;2750;49.050;9.250;2023-04-02T18:44:19;99355.25;;;6.29;82.94
5455;BME280;2750;49.050;9.250;2023-04-02T18:49:33;99380.22;;;6.25;83.25
5455;BME280;2750;49.050;9.250;2023-04-02T18:54:38;99400.34;;;6.50;83.15
5455;BME280;2750;49.050;9.250;2023-04-02T18:59:46;99403.78;;;6.50;82.41
5455;BME280;2750;49.050;9.250;2023-04-02T19:04:55;99411.25;;;6.19;82.61
5455;BME280;2750;49.050;9.250;2023-04-02T19:10:07;99414.06;;;6.06;81.68
5455;BME280;2750;49.050;9.250;2023-04-02T19:15:16;99434.59;;;6.10;81.33
5455;BME280;2750;49.050;9.250;2023-04-02T19:20:28;99436.16;;;6.19;80.65
5455;BME280;2750;49.050;9.250;2023-04-02T19:25:40;99452.03;;;5.98;80.86
5455;BME280;2750;49.050;9.250;2023-04-02T19:31:05;99455.88;;;6.21;80.08
5455;BME280;2750;49.050;9.250;2023-04-02T19:36:20;99472.59;;;5.99;79.50
5455;BME280;2750;49.050;9.250;2023-04-02T19:41:28;99482.00;;;6.00;80.94
5455;BME280;2750;49.050;9.250;2023-04-02T19:46:33;99493.25;;;5.95;79.40
5455;BME280;2750;49.050;9.250;2023-04-02T19:51:35;99494.56;;;6.20;80.55
5455;BME280;2750;49.050;9.250;2023-04-02T19:56:36;99495.88;;;5.93;80.15
5455;BME280;2750;49.050;9.250;2023-04-02T20:01:40;99488.69;;;6.10;80.24
5455;BME280;2750;49.050;9.250;2023-04-02T20:06:41;99504.91;;;6.17;78.95
5455;BME280;2750;49.050;9.250;2023-04-02T20:11:43;99508.81;;;5.90;78.86
5455;BME280;2750;49.050;9.250;2023-04-02T20:16:46;99521.75;;;6.36;78.66
5455;BME280;2750;49.050;9.250;2023-04-02T20:21:47;99513.47;;;6.19;77.44
5455;BME280;2750;49.050;9.250;2023-04-02T20:26:49;99518.94;;;5.99;77.31
5455;BME280;2750;49.050;9.250;2023-04-02T20:31:52;99534.44;;;5.98;77.55
5455;BME280;2750;49.050;9.250;2023-04-02T20:36:53;99538.56;;;6.06;76.55
5455;BME280;2750;49.050;9.250;2023-04-02T20:41:55;99530.38;;;5.80;76.34
5455;BME280;2750;49.050;9.250;2023-04-02T20:47:01;99542.97;;;5.98;74.92
5455;BME280;2750;49.050;9.250;2023-04-02T20:52:03;99555.16;;;6.41;75.52
5455;BME280;2750;49.050;9.250;2023-04-02T20:57:05;99555.41;;;6.25;75.24
5455;BME280;2750;49.050;9.250;2023-04-02T21:02:10;99559.03;;;6.66;75.03
5455;BME280;2750;49.050;9.250;2023-04-02T21:07:12;99569.34;;;6.14;75.22
5455;BME280;2750;49.050;9.250;2023-04-02T21:12:13;99580.56;;;6.10;74.86
5455;BME280;2750;49.050;9.250;2023-04-02T21:17:17;99586.75;;;6.01;75.40
5455;BME280;2750;49.050;9.250;2023-04-02T21:22:18;99587.53;;;6.05;75.32
5455;BME280;2750;49.050;9.250;2023-04-02T21:27:20;99581.78;;;6.41;73.97
5455;BME280;2750;49.050;9.250;2023-04-02T21:32:26;99591.22;;;6.42;74.10
5455;BME280;2750;49.050;9.250;2023-04-02T21:37:27;99587.72;;;5.93;75.02
5455;BME280;2750;49.050;9.250;2023-04-02T21:42:29;99589.44;;;6.47;75.73
5455;BME280;2750;49.050;9.250;2023-04-02T21:47:32;99592.28;;;6.29;74.95
5455;BME280;2750;49.050;9.250;2023-04-02T21:52:33;99600.00;;;6.31;75.55
5455;BME280;2750;49.050;9.250;2023-04-02T21:57:35;99599.28;;;6.73;74.45
5455;BME280;2750;49.050;9.250;2023-04-02T22:02:38;99607.56;;;6.41;74.63
5455;BME280;2750;49.050;9.250;2023-04-02T22:07:39;99608.94;;;6.08;75.35
5455;BME280;2750;49.050;9.250;2023-04-02T22:12:41;99605.28;;;6.24;76.36
5455;BME280;2750;49.050;9.250;2023-04-02T22:17:44;99603.63;;;6.17;75.36
5455;BME280;2750;49.050;9.250;2023-04-02T22:22:45;99607.25;;;6.06;76.28
5455;BME280;2750;49.050;9.250;2023-04-02T22:27:47;99609.03;;;6.02;76.25
5455;BME280;2750;49.050;9.250;2023-04-02T22:32:52;99611.03;;;5.82;76.63
5455;BME280;2750;49.050;9.250;2023-04-02T22:37:53;99605.50;;;6.09;76.16
5455;BME280;2750;49.050;9.250;2023-04-02T22:42:55;99607.66;;;5.75;76.24
5455;BME280;2750;49.050;9.250;2023-04-02T22:47:58;99607.22;;;6.09;76.51
5455;BME280;2750;49.050;9.250;2023-04-02T22:52:59;99601.97;;;6.13;76.27
5455;BME280;2750;49.050;9.250;2023-04-02T22:58:01;99600.97;;;5.64;77.01
5455;BME280;2750;49.050;9.250;2023-04-02T23:03:04;99614.16;;;6.05;75.75
5455;BME280;2750;49.050;9.250;2023-04-02T23:08:06;99611.59;;;6.02;76.00
5455;BME280;2750;49.050;9.250;2023-04-02T23:13:07;99598.09;;;5.85;76.90
5455;BME280;2750;49.050;9.250;2023-04-02T23:18:10;99604.03;;;5.93;77.43
5455;BME280;2750;49.050;9.250;2023-04-02T23:23:12;99601.84;;;5.61;77.59
5455;BME280;2750;49.050;9.250;2023-04-02T23:28:13;99605.09;;;5.75;77.36
5455;BME280;2750;49.050;9.250;2023-04-02T23:33:16;99603.25;;;5.84;77.48
5455;BME280;2750;49.050;9.250;2023-04-02T23:38:18;99602.75;;;5.59;78.30
5455;BME280;2750;49.050;9.250;2023-04-02T23:43:19;99596.63;;;5.67;78.49
5455;BME280;2750;49.050;9.250;2023-04-02T23:48:22;99601.75;;;5.70;77.67
5455;BME280;2750;49.050;9.250;2023-04-02T23:53:24;99600.94;;;5.65;77.87
5455;BME280;2750;49.050;9.250;2023-04-02T23:58:25;99610.97;;;5.85;78.00
